Beef Island, Islas Vírgenes Británicas

9:55 AM AST en Agosto 04, 2015 (GMT -0400)
Beef I International | | Change Station
CLOSE
Current Station
Aeropuerto
Location: Beef Island,
Altura: 13 ft
Estaciones meteorológicas cercanas

Alt 13 ft 18.44 °N, 64.54 °W | Updated 55 minutes ago

Scattered Clouds
Nubes dispersas
88 ° F
Sensación térmica 100 ° F
N
12
Viento Variable Viento desde Este

Hoy
Alta -- | Baja -- ° F
--% Posibilidad de precipitaciones
Ayer
Alta -- | Baja -- ° F
Precip. -- pul
5:56 AM 6:51 PM
Gibosa menguante, 77% visible
Presión 30.06 pul
Visibilidad 6.2 Millas
Nubes Nubes dispersas 1900 ft
Índice de calor 100 ° F
Punto de rocío 77 ° F
Humedad 70%
Precipitaciones 0.00 pul
Espesor de la nieve No disponible.
UV 4 de una escala de 12
Polen No disponible.
Calidad del aire No disponible.
Flu Activity No disponible.
METAR TUPJ 041300Z 08010KT 9999 SCT019 31/25 Q1018 RMK A3008

More Conditions Fewer Conditions

Presión 30.06 pul
Visibilidad 6.2 Millas
Nubes Nubes dispersas 1900 ft
Índice de calor 100 ° F
Punto de rocío 77 ° F
Humedad 70%
Precipitaciones 0.00 pul
Espesor de la nieve No disponible.
UV 4 de una escala de 12
Polen No disponible.
Calidad del aire No disponible.
Flu Activity No disponible.
METAR TUPJ 041300Z 08010KT 9999 SCT019 31/25 Q1018 RMK A3008

More Conditions Fewer Conditions

10-Day Weather Forecast

×

Almanac

Astronomía

Aug. 04, 2015 Salida Puesta
Hora real
Crepúsculo civil
Crepúsculo náutico
Crepúsculo astronómico
Luna
Horas de luz
Horas de luz
Tomorrow will be .
, % of the Moon is Illuminated

Extremos de hoy

Máximos del país Bajas del país

Community

WunderPhotos

Upload Photos

1,843,912 ¡fotos cargadas!

WunderBlogs® & News

Nearby

Calidad del aire

  Calidad del aire Índice AQ Contaminante
Not available.

Grosos de nieve

Estación Profundido Altura

Actividad de terremotos

Ciudad Distance Mag. Tiempo y dato
Magnitud mínima muestra es 2,5.

Temperaturas de aguas costeras

Lugar Temperatura

Stations

Estaciones meteorológicas cercanas

Ubicación de la estación Temp. Vientos helados Punto de rocío Humedad Viento Precip. Alt Actualizado Tipo